Time;durP1;ratioP1;P1;durP2;ratioP2;P2;SDS_P1;SDS_P2;PMS_P1;PMS_P2;Temp;Humidity;BMP_temperature;BMP_pressure;BME280_temperature;BME280_humidity;BME280_pressure;Samples;Min_cycle;Max_cycle;Signal;HPM_P1;HPM_P2
2021/10/09 00:00:57;;;;;;;5.50;5.00;;;;;19.70;101779.00;;;;2096562;28;20365;-55
2021/10/09 00:01:58;;;;;;;5.57;5.17;;;;;19.70;101777.00;;;;2096586;28;20204;-54
2021/10/09 00:02:58;;;;;;;5.17;4.77;;;;;19.70;101780.00;;;;2096541;28;20212;-54
2021/10/09 00:03:59;;;;;;;4.90;4.60;;;;;19.70;101780.00;;;;2096370;28;20208;-54
2021/10/09 00:04:59;;;;;;;5.47;5.07;;;;;19.70;101782.00;;;;2094993;28;20212;-54
2021/10/09 00:06:00;;;;;;;5.73;5.23;;;;;19.70;101787.00;;;;2088800;28;20243;-57
2021/10/09 00:07:00;;;;;;;5.90;5.40;;;;;19.70;101777.00;;;;2088608;28;20228;-55
2021/10/09 00:08:01;;;;;;;5.37;4.97;;;;;19.70;101778.00;;;;2088027;28;20455;-54
2021/10/09 00:09:02;;;;;;;5.80;5.17;;;;;19.70;101782.00;;;;2087442;28;20297;-56
2021/10/09 00:10:05;;;;;;;5.45;5.05;;;;;19.70;101779.00;;;;2087550;28;20216;-55
2021/10/09 00:11:13;;;;;;;6.05;5.57;;;;;19.70;101781.00;;;;2091234;28;20363;-54
2021/10/09 00:12:13;;;;;;;5.57;5.18;;;;;19.70;101775.00;;;;2087676;28;20229;-54
2021/10/09 00:13:14;;;;;;;6.60;6.10;;;;;19.70;101783.00;;;;2089667;28;20352;-55
2021/10/09 00:14:14;;;;;;;5.83;5.40;;;;;19.70;101782.00;;;;2095099;28;20208;-54
2021/10/09 00:15:15;;;;;;;5.70;5.30;;;;;19.70;101778.00;;;;2088140;28;20262;-54
2021/10/09 00:16:16;;;;;;;5.93;5.43;;;;;19.70;101781.00;;;;2087691;28;20209;-54
2021/10/09 00:17:18;;;;;;;6.10;5.60;;;;;19.70;101786.00;;;;2087688;28;20212;-54
2021/10/09 00:18:19;;;;;;;5.80;5.32;;;;;19.70;101772.00;;;;2091318;28;20549;-55
2021/10/09 00:19:19;;;;;;;6.00;5.60;;;;;19.70;101775.00;;;;2087164;28;20752;-55
2021/10/09 00:20:20;;;;;;;5.80;5.40;;;;;19.70;101768.00;;;;2086888;28;20209;-55
2021/10/09 00:21:21;;;;;;;5.57;5.18;;;;;19.70;101778.00;;;;2086866;28;20239;-55
2021/10/09 00:22:21;;;;;;;5.60;5.10;;;;;19.70;101775.00;;;;2089782;28;20265;-54
2021/10/09 00:23:22;;;;;;;5.63;5.20;;;;;19.70;101780.00;;;;2088836;28;20221;-54
2021/10/09 00:24:22;;;;;;;6.00;5.53;;;;;19.70;101782.00;;;;2087594;28;20339;-55
2021/10/09 00:25:23;;;;;;;6.13;5.70;;;;;19.70;101783.00;;;;2091946;28;21049;-55
2021/10/09 00:26:24;;;;;;;5.32;4.93;;;;;19.70;101775.00;;;;2087939;28;20217;-53
2021/10/09 00:27:24;;;;;;;6.10;5.63;;;;;19.70;101794.00;;;;2087226;28;20262;-54
2021/10/09 00:28:25;;;;;;;5.80;5.40;;;;;19.70;101787.00;;;;2094942;28;20530;-55
2021/10/09 00:29:25;;;;;;;6.47;5.87;;;;;19.70;101785.00;;;;2091326;28;20630;-54
2021/10/09 00:30:26;;;;;;;5.83;5.33;;;;;19.70;101784.00;;;;2085893;28;20209;-54
2021/10/09 00:31:26;;;;;;;5.77;5.37;;;;;19.70;101789.00;;;;2087477;28;20221;-55
2021/10/09 00:32:26;;;;;;;5.40;5.00;;;;;19.70;101787.00;;;;2087858;28;20235;-53
2021/10/09 00:33:27;;;;;;;5.60;5.20;;;;;19.70;101789.00;;;;2087918;28;20216;-55
2021/10/09 00:34:27;;;;;;;5.70;5.30;;;;;19.70;101787.00;;;;2092065;28;20291;-55
2021/10/09 00:35:28;;;;;;;5.70;5.30;;;;;19.70;101790.00;;;;2092265;28;20452;-54
2021/10/09 00:36:29;;;;;;;5.83;5.43;;;;;19.70;101786.00;;;;2091282;28;20212;-54
2021/10/09 00:37:29;;;;;;;5.20;4.80;;;;;19.70;101780.00;;;;2087791;28;20209;-54
2021/10/09 00:38:30;;;;;;;5.43;5.03;;;;;19.70;101782.00;;;;2087428;28;20502;-55
2021/10/09 00:39:30;;;;;;;5.53;5.13;;;;;19.70;101780.00;;;;2086542;28;20275;-55
2021/10/09 00:40:31;;;;;;;5.67;5.27;;;;;19.70;101784.00;;;;2084204;28;20225;-55
2021/10/09 00:41:32;;;;;;;5.97;5.47;;;;;19.70;101787.00;;;;2087207;28;20604;-53
2021/10/09 00:42:33;;;;;;;6.03;5.53;;;;;19.70;101777.00;;;;2095234;28;20215;-55
2021/10/09 00:43:33;;;;;;;5.57;5.18;;;;;19.70;101787.00;;;;2091186;28;20212;-55
2021/10/09 00:44:34;;;;;;;6.20;5.70;;;;;19.70;101783.00;;;;2086621;28;20212;-54
2021/10/09 00:45:34;;;;;;;5.80;5.30;;;;;19.70;101776.00;;;;2087677;28;20216;-54
2021/10/09 00:46:35;;;;;;;5.83;5.43;;;;;19.70;101782.00;;;;2087482;28;20672;-54
2021/10/09 00:47:35;;;;;;;6.45;5.95;;;;;19.70;101788.00;;;;2086851;28;20268;-58
2021/10/09 00:48:36;;;;;;;6.00;5.50;;;;;19.70;101785.00;;;;2093692;28;20220;-54
2021/10/09 00:49:36;;;;;;;5.60;5.20;;;;;19.70;101781.00;;;;2095640;28;20215;-54
2021/10/09 00:50:36;;;;;;;5.80;5.40;;;;;19.70;101771.00;;;;2092184;28;20677;-55
2021/10/09 00:51:37;;;;;;;5.97;5.47;;;;;19.70;101781.00;;;;2090548;28;20888;-54
2021/10/09 00:52:37;;;;;;;5.77;5.37;;;;;19.70;101782.00;;;;2087856;28;20690;-54
2021/10/09 00:53:40;;;;;;;5.50;5.10;;;;;19.70;101784.00;;;;2091508;28;20594;-55
2021/10/09 00:54:45;;;;;;;5.82;5.43;;;;;19.70;101784.00;;;;2094707;28;20215;-54
2021/10/09 00:55:45;;;;;;;6.03;5.63;;;;;19.70;101772.00;;;;2092132;28;20221;-53
2021/10/09 00:56:46;;;;;;;5.40;4.93;;;;;19.70;101779.00;;;;2086154;28;20597;-55
2021/10/09 00:57:46;;;;;;;5.83;5.33;;;;;19.70;101780.00;;;;2094778;28;20208;-55
2021/10/09 00:58:47;;;;;;;5.93;5.43;;;;;19.70;101776.00;;;;2086393;28;20314;-55
2021/10/09 00:59:48;;;;;;;6.00;5.50;;;;;19.70;101786.00;;;;2090636;28;20231;-55
2021/10/09 01:00:48;;;;;;;5.85;5.35;;;;;19.70;101785.00;;;;2087909;28;20914;-54
2021/10/09 01:01:49;;;;;;;5.50;5.10;;;;;19.70;101774.00;;;;2091707;28;20307;-55
2021/10/09 01:02:49;;;;;;;6.43;5.93;;;;;19.70;101784.00;;;;2089892;28;20305;-54
2021/10/09 01:03:50;;;;;;;6.63;6.13;;;;;19.70;101784.00;;;;2092191;28;20226;-55
2021/10/09 01:04:52;;;;;;;5.33;5.03;;;;;19.70;101787.00;;;;2091694;28;20213;-56
2021/10/09 01:05:52;;;;;;;6.25;5.80;;;;;19.70;101780.00;;;;2095206;28;20469;-55
2021/10/09 01:06:53;;;;;;;6.03;5.53;;;;;19.70;101786.00;;;;2092142;28;20255;-55
2021/10/09 01:07:53;;;;;;;6.37;5.87;;;;;19.70;101775.00;;;;2090910;28;20201;-55
2021/10/09 01:08:53;;;;;;;5.77;5.37;;;;;19.70;101777.00;;;;2093087;28;20287;-53
2021/10/09 01:09:54;;;;;;;6.13;5.63;;;;;19.70;101774.00;;;;2088888;28;20228;-54
2021/10/09 01:10:54;;;;;;;6.30;5.80;;;;;19.70;101771.00;;;;2091592;28;20212;-55
2021/10/09 01:11:54;;;;;;;6.33;5.83;;;;;19.70;101767.00;;;;2094856;28;20302;-54
2021/10/09 01:12:57;;;;;;;6.10;5.60;;;;;19.70;101772.00;;;;2093643;28;20216;-54
2021/10/09 01:13:57;;;;;;;6.30;5.80;;;;;19.70;101773.00;;;;2091771;28;20888;-55
2021/10/09 01:14:58;;;;;;;5.70;5.30;;;;;19.70;101769.00;;;;2090751;28;20229;-54
2021/10/09 01:15:58;;;;;;;6.67;6.17;;;;;19.70;101774.00;;;;2090712;28;20471;-54
2021/10/09 01:16:58;;;;;;;6.10;5.70;;;;;19.70;101771.00;;;;2089021;28;20221;-55
2021/10/09 01:18:13;;;;;;;5.80;5.40;;;;;19.70;101771.00;;;;2093399;28;20311;-55
2021/10/09 01:19:14;;;;;;;6.20;5.70;;;;;19.70;101767.00;;;;2077225;28;20212;-55
2021/10/09 01:20:14;;;;;;;5.90;5.40;;;;;19.70;101774.00;;;;2090484;28;20245;-55
2021/10/09 01:21:15;;;;;;;6.20;5.80;;;;;19.70;101768.00;;;;2092750;28;20443;-54
2021/10/09 01:22:15;;;;;;;6.50;6.00;;;;;19.70;101770.00;;;;2094181;28;20204;-54
2021/10/09 01:23:17;;;;;;;6.13;5.73;;;;;19.70;101763.00;;;;2089549;28;20212;-55
2021/10/09 01:24:19;;;;;;;6.38;5.88;;;;;19.70;101766.00;;;;2092366;28;20212;-55
2021/10/09 01:25:19;;;;;;;5.60;5.20;;;;;19.70;101767.00;;;;2091124;28;20949;-55
2021/10/09 01:26:19;;;;;;;7.33;6.73;;;;;19.70;101767.00;;;;2093945;28;20231;-55
2021/10/09 01:27:20;;;;;;;5.93;5.53;;;;;19.70;101760.00;;;;2091327;28;20219;-55
2021/10/09 01:28:20;;;;;;;6.90;6.30;;;;;19.70;101771.00;;;;2091522;28;20204;-55
2021/10/09 01:29:20;;;;;;;6.00;5.60;;;;;19.70;101758.00;;;;2088852;28;20221;-55
2021/10/09 01:30:21;;;;;;;6.23;5.73;;;;;19.70;101758.00;;;;2090833;28;20216;-55
2021/10/09 01:31:21;;;;;;;6.60;6.10;;;;;19.70;101758.00;;;;2093384;28;20693;-55
2021/10/09 01:32:21;;;;;;;6.33;5.83;;;;;19.70;101762.00;;;;2088531;28;20586;-55
2021/10/09 01:33:22;;;;;;;6.50;6.00;;;;;19.70;101765.00;;;;2090473;28;20200;-55
2021/10/09 01:34:23;;;;;;;6.43;5.93;;;;;19.70;101761.00;;;;2086338;28;20212;-55
2021/10/09 01:35:25;;;;;;;6.75;6.25;;;;;19.70;101761.00;;;;2087233;28;20258;-55
2021/10/09 01:36:34;;;;;;;6.35;5.85;;;;;19.70;101763.00;;;;2086664;28;20209;-55
2021/10/09 01:37:55;;;;;;;5.82;5.43;;;;;19.70;101765.00;;;;2089325;28;20215;-54
2021/10/09 01:38:57;;;;;;;7.18;6.57;;;;;19.70;101762.00;;;;2078979;28;20307;-54
2021/10/09 01:39:57;;;;;;;6.43;5.93;;;;;19.70;101759.00;;;;2082592;28;20677;-55
2021/10/09 01:40:58;;;;;;;6.33;5.83;;;;;19.70;101762.00;;;;2079320;28;20994;-55
2021/10/09 01:41:58;;;;;;;6.73;6.23;;;;;19.70;101753.00;;;;2083857;28;20649;-55
2021/10/09 01:42:58;;;;;;;6.97;6.47;;;;;19.70;101758.00;;;;2085162;28;20307;-55
2021/10/09 01:43:59;;;;;;;6.73;6.23;;;;;19.60;101746.00;;;;2080760;28;20252;-55
2021/10/09 01:44:59;;;;;;;6.30;5.80;;;;;19.60;101763.00;;;;2080852;28;20221;-55
2021/10/09 01:46:00;;;;;;;7.20;6.60;;;;;19.70;101751.00;;;;2079833;28;20217;-55
2021/10/09 01:47:00;;;;;;;6.60;6.10;;;;;19.70;101757.00;;;;2078655;28;20232;-56
2021/10/09 01:48:01;;;;;;;6.40;5.90;;;;;19.70;101753.00;;;;2086684;28;20463;-55
2021/10/09 01:49:02;;;;;;;6.03;5.63;;;;;19.70;101759.00;;;;2087354;28;20212;-53
2021/10/09 01:50:02;;;;;;;6.37;5.87;;;;;19.70;101758.00;;;;2085918;28;20221;-55
2021/10/09 01:51:04;;;;;;;5.60;5.20;;;;;19.70;101751.00;;;;2084163;28;20474;-54
2021/10/09 01:52:05;;;;;;;6.22;5.72;;;;;19.60;101754.00;;;;2084594;28;20260;-54
2021/10/09 01:53:05;;;;;;;6.20;5.70;;;;;19.60;101762.00;;;;2083621;28;20221;-55
2021/10/09 01:54:06;;;;;;;6.03;5.53;;;;;19.60;101750.00;;;;2080506;28;20221;-55
2021/10/09 01:55:06;;;;;;;6.30;5.80;;;;;19.70;101762.00;;;;2080620;28;20292;-55
2021/10/09 01:56:07;;;;;;;6.73;6.23;;;;;19.60;101755.00;;;;2086876;28;20576;-55
2021/10/09 01:57:08;;;;;;;5.73;5.33;;;;;19.60;101756.00;;;;2081265;28;20464;-55
2021/10/09 01:58:08;;;;;;;6.67;6.17;;;;;19.60;101749.00;;;;2080816;28;20452;-54
2021/10/09 01:59:08;;;;;;;6.40;5.90;;;;;19.70;101750.00;;;;2079093;28;20209;-55
2021/10/09 02:00:11;;;;;;;7.27;5.90;;;;;19.60;101717.00;;;;2084280;28;20270;-54
2021/10/09 02:01:11;;;;;;;5.93;5.43;;;;;19.60;101748.00;;;;2071682;28;20299;-55
2021/10/09 02:02:11;;;;;;;7.20;6.60;;;;;19.60;101756.00;;;;2071508;28;20662;-56
2021/10/09 02:03:12;;;;;;;6.83;6.33;;;;;19.70;101748.00;;;;2080978;28;20240;-55
2021/10/09 02:04:12;;;;;;;6.43;5.93;;;;;19.60;101753.00;;;;2081354;28;20674;-55
2021/10/09 02:05:13;;;;;;;6.83;6.17;;;;;19.60;101733.00;;;;2082270;28;20697;-55
2021/10/09 02:06:14;;;;;;;6.70;6.20;;;;;19.70;101756.00;;;;2081040;28;20939;-55
2021/10/09 02:07:18;;;;;;;6.47;5.97;;;;;19.60;101757.00;;;;2088255;28;20220;-55
2021/10/09 02:08:19;;;;;;;6.90;6.35;;;;;19.60;101747.00;;;;2083694;28;21046;-55
2021/10/09 02:09:19;;;;;;;6.63;6.13;;;;;19.60;101749.00;;;;2080254;28;20259;-55
2021/10/09 02:10:21;;;;;;;6.57;6.07;;;;;19.70;101740.00;;;;2086555;28;20225;-55
2021/10/09 02:11:25;;;;;;;6.63;6.13;;;;;19.60;101745.00;;;;2073324;28;20233;-54
2021/10/09 02:12:29;;;;;;;6.50;6.00;;;;;19.70;101745.00;;;;2075931;28;20205;-55
2021/10/09 02:14:54;;;;;;;5.95;5.55;;;;;19.60;101746.00;;;;2084998;28;20244;-55
2021/10/09 02:16:15;;;;;;;6.75;6.25;;;;;19.60;101744.00;;;;2084817;28;20296;-55
2021/10/09 02:17:36;;;;;;;7.00;6.47;;;;;19.60;101745.00;;;;2088805;28;20295;-55
2021/10/09 02:26:08;;;;;;;6.47;5.97;;;;;19.60;101746.00;;;;2088441;28;20232;-55
2021/10/09 02:27:08;;;;;;;6.50;6.00;;;;;19.60;101736.00;;;;2089041;28;20236;-55
2021/10/09 02:28:09;;;;;;;6.97;6.40;;;;;19.60;101739.00;;;;2085289;28;20574;-55
2021/10/09 02:29:09;;;;;;;6.30;5.80;;;;;19.60;101737.00;;;;2080068;28;21260;-55
2021/10/09 02:30:10;;;;;;;6.17;5.67;;;;;19.60;101743.00;;;;2081187;28;20398;-55
2021/10/09 02:31:10;;;;;;;7.10;6.60;;;;;19.60;101741.00;;;;2083621;28;20910;-55
2021/10/09 02:32:11;;;;;;;6.70;6.20;;;;;19.60;101742.00;;;;2085955;28;20228;-55
2021/10/09 02:33:12;;;;;;;6.70;6.17;;;;;19.60;101740.00;;;;2082843;28;20742;-54
2021/10/09 02:34:13;;;;;;;6.97;6.40;;;;;19.60;101731.00;;;;2087008;28;20460;-56
2021/10/09 02:35:13;;;;;;;5.87;5.47;;;;;19.60;101740.00;;;;2085318;28;20301;-55
2021/10/09 02:36:13;;;;;;;6.40;5.90;;;;;19.60;101735.00;;;;2080299;28;20475;-55
2021/10/09 02:37:14;;;;;;;6.70;6.20;;;;;19.60;101727.00;;;;2077208;28;20263;-55
2021/10/09 02:38:15;;;;;;;7.13;6.53;;;;;19.60;101735.00;;;;2084153;28;20220;-55
2021/10/09 02:39:15;;;;;;;5.90;5.43;;;;;19.60;101735.00;;;;2082877;28;20221;-55
2021/10/09 02:40:15;;;;;;;6.50;6.00;;;;;19.60;101731.00;;;;2085663;28;20217;-55
2021/10/09 02:41:16;;;;;;;7.73;7.13;;;;;19.60;101732.00;;;;2085774;28;20205;-55
2021/10/09 02:42:16;;;;;;;7.07;6.47;;;;;19.60;101728.00;;;;2084404;28;20216;-55
2021/10/09 02:43:17;;;;;;;6.50;5.90;;;;;19.60;101728.00;;;;2088104;28;20358;-55
2021/10/09 02:44:18;;;;;;;6.37;5.87;;;;;19.60;101735.00;;;;2088537;28;20225;-55
2021/10/09 02:45:18;;;;;;;6.90;6.30;;;;;19.60;101730.00;;;;2086709;28;20208;-55
2021/10/09 02:46:18;;;;;;;6.80;6.30;;;;;19.60;101729.00;;;;2083723;28;20471;-55
2021/10/09 02:47:19;;;;;;;5.67;5.30;;;;;19.60;101728.00;;;;2080220;28;20301;-55
2021/10/09 02:48:19;;;;;;;6.90;6.40;;;;;19.60;101731.00;;;;2080452;28;20223;-55
2021/10/09 02:49:19;;;;;;;6.67;6.17;;;;;19.60;101723.00;;;;2085786;28;20693;-55
2021/10/09 02:50:20;;;;;;;6.73;6.23;;;;;19.60;101730.00;;;;2084610;28;20971;-55
2021/10/09 02:51:21;;;;;;;6.10;5.60;;;;;19.60;101728.00;;;;2085070;28;20728;-55
2021/10/09 02:52:21;;;;;;;6.90;6.40;;;;;19.60;101727.00;;;;2086748;28;20213;-55
2021/10/09 02:53:22;;;;;;;6.13;5.73;;;;;19.60;101728.00;;;;2080314;28;20244;-55
2021/10/09 02:54:22;;;;;;;7.13;6.53;;;;;19.60;101718.00;;;;2080222;28;20233;-55
2021/10/09 02:55:23;;;;;;;6.60;6.10;;;;;19.60;101732.00;;;;2080215;28;20873;-55
2021/10/09 02:56:25;;;;;;;7.23;6.63;;;;;19.60;101720.00;;;;2080567;28;20214;-55
2021/10/09 02:57:26;;;;;;;6.85;6.35;;;;;19.60;101727.00;;;;2074912;28;20543;-56
2021/10/09 02:58:26;;;;;;;6.82;6.30;;;;;19.60;101732.00;;;;2081625;28;20225;-55
2021/10/09 02:59:27;;;;;;;7.00;6.40;;;;;19.60;101722.00;;;;2080692;28;20225;-55
2021/10/09 03:00:27;;;;;;;6.20;5.77;;;;;19.60;101724.00;;;;2080327;28;20225;-56
2021/10/09 03:01:28;;;;;;;6.83;6.30;;;;;19.60;101728.00;;;;2087915;28;20209;-55
2021/10/09 03:02:28;;;;;;;6.73;6.13;;;;;19.60;101730.00;;;;2084135;28;20355;-55
2021/10/09 03:03:29;;;;;;;7.13;6.63;;;;;19.60;101722.00;;;;2087701;28;20209;-55
2021/10/09 03:04:29;;;;;;;6.10;5.70;;;;;19.60;101722.00;;;;2085512;28;20320;-55
2021/10/09 03:05:30;;;;;;;7.07;6.57;;;;;19.60;101720.00;;;;2083157;28;20746;-55
2021/10/09 03:06:30;;;;;;;7.47;6.87;;;;;19.60;101719.00;;;;2078432;28;20624;-55
2021/10/09 03:07:31;;;;;;;6.50;6.00;;;;;19.60;101718.00;;;;2082104;28;20205;-55
2021/10/09 03:08:31;;;;;;;6.13;5.73;;;;;19.60;101719.00;;;;2081461;28;20206;-55
2021/10/09 03:09:31;;;;;;;6.60;6.10;;;;;19.60;101721.00;;;;2079739;28;20706;-56
2021/10/09 03:10:32;;;;;;;6.80;6.30;;;;;19.60;101720.00;;;;2080149;28;20300;-55
2021/10/09 03:11:33;;;;;;;7.20;6.60;;;;;19.60;101715.00;;;;2084449;28;20217;-55
2021/10/09 03:12:33;;;;;;;6.83;6.23;;;;;19.60;101717.00;;;;2087526;28;20251;-56
2021/10/09 03:13:33;;;;;;;6.90;6.40;;;;;19.60;101719.00;;;;2087493;28;20209;-56
2021/10/09 03:14:34;;;;;;;7.00;6.40;;;;;19.60;101724.00;;;;2080633;28;20214;-55
2021/10/09 03:15:34;;;;;;;7.27;6.67;;;;;19.60;101720.00;;;;2080061;28;20343;-56
2021/10/09 03:16:35;;;;;;;5.80;5.40;;;;;19.60;101719.00;;;;2080324;28;20213;-54
2021/10/09 03:17:35;;;;;;;6.97;6.43;;;;;19.60;101717.00;;;;2080180;28;20213;-55
2021/10/09 03:18:36;;;;;;;6.83;6.33;;;;;19.60;101729.00;;;;2077849;28;20216;-56
2021/10/09 03:19:36;;;;;;;6.73;6.23;;;;;19.60;101727.00;;;;2079352;28;20212;-55
2021/10/09 03:20:38;;;;;;;6.80;6.20;;;;;19.60;101724.00;;;;2079531;28;20209;-55
2021/10/09 03:21:38;;;;;;;6.70;6.20;;;;;19.60;101725.00;;;;2079679;28;20233;-55
2021/10/09 03:22:38;;;;;;;6.70;6.20;;;;;19.60;101728.00;;;;2079866;28;20698;-55
2021/10/09 03:23:39;;;;;;;6.87;6.33;;;;;19.60;101729.00;;;;2079631;28;20703;-55
2021/10/09 03:24:39;;;;;;;6.70;6.20;;;;;19.60;101726.00;;;;2079733;28;20210;-55
2021/10/09 03:25:40;;;;;;;6.70;6.20;;;;;19.60;101729.00;;;;2079510;28;20483;-55
2021/10/09 03:26:40;;;;;;;6.77;6.27;;;;;19.60;101724.00;;;;2083176;28;20325;-55
2021/10/09 03:27:40;;;;;;;7.13;6.63;;;;;19.60;101729.00;;;;2088047;28;20282;-55
2021/10/09 03:28:41;;;;;;;7.13;6.53;;;;;19.60;101725.00;;;;2086413;28;20290;-56
2021/10/09 03:29:41;;;;;;;6.70;6.20;;;;;19.60;101727.00;;;;2078628;28;20248;-55
2021/10/09 03:30:41;;;;;;;7.03;6.43;;;;;19.60;101722.00;;;;2079862;28;20305;-55
2021/10/09 03:31:43;;;;;;;6.00;5.53;;;;;19.60;101721.00;;;;2080052;28;20287;-55
2021/10/09 03:32:43;;;;;;;6.28;5.78;;;;;19.60;101729.00;;;;2080206;28;20714;-55
2021/10/09 03:33:44;;;;;;;5.90;5.47;;;;;19.60;101727.00;;;;2080250;28;20322;-55
2021/10/09 03:34:44;;;;;;;6.70;6.20;;;;;19.60;101727.00;;;;2080020;28;20221;-55
2021/10/09 03:35:48;;;;;;;6.40;5.90;;;;;19.60;101738.00;;;;2082881;28;20240;-55
2021/10/09 03:36:48;;;;;;;6.90;6.40;;;;;19.60;101726.00;;;;2072860;28;20256;-55
2021/10/09 03:37:49;;;;;;;6.93;5.93;;;;;19.60;101729.00;;;;2082460;28;20244;-55
2021/10/09 03:38:50;;;;;;;7.15;6.65;;;;;19.60;101729.00;;;;2078643;28;20241;-55
2021/10/09 03:39:52;;;;;;;6.43;5.93;;;;;19.60;101733.00;;;;2078683;28;20214;-55
2021/10/09 03:40:59;;;;;;;6.80;6.30;;;;;19.60;101734.00;;;;2079634;28;20224;-55
2021/10/09 03:42:08;;;;;;;6.78;6.28;;;;;19.60;101736.00;;;;2079084;28;20221;-57
2021/10/09 03:43:12;;;;;;;6.15;5.63;;;;;19.60;101731.00;;;;2081829;28;20220;-55
2021/10/09 03:44:13;;;;;;;7.32;6.82;;;;;19.60;101729.00;;;;2087420;28;20321;-56
2021/10/09 03:46:19;;;;;;;6.97;6.47;;;;;19.60;101733.00;;;;2087539;28;20685;-55
2021/10/09 03:47:30;;;;;;;6.05;5.65;;;;;19.60;101738.00;;;;2088052;28;20412;-55
2021/10/09 03:49:58;;;;;;;6.70;6.20;;;;;19.60;101731.00;;;;2087722;28;20299;-55
2021/10/09 03:53:27;;;;;;;6.97;6.38;;;;;19.60;101738.00;;;;2072067;28;20205;-55
2021/10/09 03:54:27;;;;;;;7.60;7.00;;;;;19.60;101734.00;;;;2087820;28;20299;-55
2021/10/09 03:55:28;;;;;;;7.00;6.40;;;;;19.50;101734.00;;;;2086564;28;20613;-55
2021/10/09 03:56:28;;;;;;;7.17;6.67;;;;;19.60;101733.00;;;;2081618;28;20216;-55
2021/10/09 03:57:28;;;;;;;6.93;6.43;;;;;19.60;101729.00;;;;2081563;28;20206;-55
2021/10/09 03:58:29;;;;;;;6.40;5.90;;;;;19.60;101733.00;;;;2087349;28;20209;-55
2021/10/09 03:59:29;;;;;;;6.63;6.13;;;;;19.60;101739.00;;;;2087151;28;20575;-55
2021/10/09 04:00:30;;;;;;;6.90;6.30;;;;;19.60;101686.00;;;;2079775;28;20267;-55
2021/10/09 04:01:30;;;;;;;6.40;5.90;;;;;19.60;101739.00;;;;2074242;28;20222;-55
2021/10/09 04:02:31;;;;;;;6.30;5.80;;;;;19.60;101738.00;;;;2079197;28;20316;-55
2021/10/09 04:03:32;;;;;;;7.00;6.50;;;;;19.60;101730.00;;;;2079252;28;20210;-55
2021/10/09 04:04:32;;;;;;;7.10;6.50;;;;;19.60;101736.00;;;;2081031;28;20221;-55
2021/10/09 04:05:33;;;;;;;6.90;6.40;;;;;19.60;101735.00;;;;2085476;28;20448;-58
2021/10/09 04:06:33;;;;;;;6.77;6.23;;;;;19.60;101742.00;;;;2082994;28;20796;-59
2021/10/09 04:07:33;;;;;;;6.43;5.93;;;;;19.60;101729.00;;;;2082832;28;20320;-56
2021/10/09 04:08:34;;;;;;;6.90;6.40;;;;;19.60;101737.00;;;;2080617;28;20216;-58
2021/10/09 04:09:34;;;;;;;6.53;6.03;;;;;19.60;101737.00;;;;2079477;28;20217;-57
2021/10/09 04:10:35;;;;;;;6.97;6.47;;;;;19.60;101732.00;;;;2079636;28;20301;-56
2021/10/09 04:11:35;;;;;;;6.60;6.10;;;;;19.50;101746.00;;;;2079558;28;20426;-55
2021/10/09 04:12:36;;;;;;;6.60;6.10;;;;;19.60;101737.00;;;;2079581;28;20686;-55
2021/10/09 04:13:36;;;;;;;7.17;6.67;;;;;19.60;101739.00;;;;2079706;28;20776;-55
2021/10/09 04:14:36;;;;;;;6.97;6.47;;;;;19.60;101740.00;;;;2079841;28;20281;-55
2021/10/09 04:15:38;;;;;;;6.60;6.10;;;;;19.60;101734.00;;;;2082512;28;20239;-55
2021/10/09 04:16:39;;;;;;;6.72;6.20;;;;;19.60;101737.00;;;;2087883;28;20212;-56
2021/10/09 04:17:39;;;;;;;6.68;6.18;;;;;19.60;101741.00;;;;2086913;28;20233;-56
2021/10/09 04:18:40;;;;;;;6.60;6.10;;;;;19.60;101739.00;;;;2078006;28;20256;-55
2021/10/09 04:19:40;;;;;;;6.77;6.27;;;;;19.60;101742.00;;;;2079380;28;20214;-57
2021/10/09 04:20:41;;;;;;;6.57;6.07;;;;;19.60;101739.00;;;;2080947;28;20221;-55
2021/10/09 04:21:41;;;;;;;7.50;6.90;;;;;19.60;101745.00;;;;2087725;28;20701;-56
2021/10/09 04:22:41;;;;;;;6.70;6.20;;;;;19.60;101743.00;;;;2087814;28;20287;-55
2021/10/09 04:23:42;;;;;;;6.87;6.37;;;;;19.60;101740.00;;;;2081318;28;20213;-55
2021/10/09 04:24:42;;;;;;;6.83;6.33;;;;;19.60;101744.00;;;;2077568;28;20213;-54
2021/10/09 04:25:42;;;;;;;6.80;6.30;;;;;19.60;101741.00;;;;2078187;28;20218;-55
2021/10/09 04:26:43;;;;;;;6.60;6.10;;;;;19.60;101733.00;;;;2078992;28;20217;-56
2021/10/09 04:27:44;;;;;;;7.07;6.47;;;;;19.60;101742.00;;;;2079356;28;20309;-55
2021/10/09 04:28:44;;;;;;;6.57;6.05;;;;;19.60;101738.00;;;;2078795;28;20722;-55
2021/10/09 04:29:45;;;;;;;6.03;5.63;;;;;19.60;101739.00;;;;2078818;28;20216;-55
2021/10/09 04:30:45;;;;;;;7.27;6.77;;;;;19.60;101739.00;;;;2078398;28;20202;-55
2021/10/09 04:31:45;;;;;;;6.60;6.10;;;;;19.60;101736.00;;;;2078742;28;20222;-55
2021/10/09 04:32:46;;;;;;;6.60;6.10;;;;;19.60;101736.00;;;;2082187;28;20686;-55
2021/10/09 04:33:46;;;;;;;7.40;6.70;;;;;19.50;101732.00;;;;2086144;28;20213;-55
2021/10/09 04:34:47;;;;;;;6.60;6.10;;;;;19.60;101738.00;;;;2087336;28;20212;-55
2021/10/09 04:35:48;;;;;;;6.50;6.00;;;;;19.60;101727.00;;;;2077795;28;20212;-55
2021/10/09 04:36:48;;;;;;;6.30;5.90;;;;;19.60;101742.00;;;;2073415;28;20241;-55
2021/10/09 04:37:49;;;;;;;6.77;6.27;;;;;19.60;101739.00;;;;2074523;28;20503;-54
2021/10/09 04:38:50;;;;;;;6.70;6.20;;;;;19.60;101736.00;;;;2079464;28;21168;-55
2021/10/09 04:39:51;;;;;;;6.57;6.07;;;;;19.60;101738.00;;;;2082830;28;20634;-55
2021/10/09 04:40:52;;;;;;;6.80;6.30;;;;;19.60;101735.00;;;;2086804;28;20267;-55
2021/10/09 04:41:52;;;;;;;7.07;6.57;;;;;19.60;101727.00;;;;2086372;28;20299;-55
2021/10/09 04:42:52;;;;;;;7.13;6.53;;;;;19.60;101727.00;;;;2086056;28;20217;-55
2021/10/09 04:43:53;;;;;;;6.70;6.20;;;;;19.60;101728.00;;;;2087253;28;20717;-55
2021/10/09 04:44:53;;;;;;;6.90;6.30;;;;;19.50;101730.00;;;;2087070;28;20759;-55
2021/10/09 04:45:54;;;;;;;6.70;6.20;;;;;19.50;101734.00;;;;2085802;28;20220;-55
2021/10/09 04:46:54;;;;;;;6.83;6.33;;;;;19.50;101733.00;;;;2086549;28;20224;-55
2021/10/09 04:47:54;;;;;;;6.97;6.37;;;;;19.50;101740.00;;;;2087179;28;20225;-55
2021/10/09 04:48:56;;;;;;;7.70;7.10;;;;;19.50;101737.00;;;;2087015;28;20738;-54
2021/10/09 04:49:57;;;;;;;7.25;6.75;;;;;19.50;101734.00;;;;2086715;28;20260;-55
2021/10/09 04:50:57;;;;;;;7.20;6.63;;;;;19.50;101728.00;;;;2086936;28;20704;-55
2021/10/09 04:51:57;;;;;;;6.63;6.13;;;;;19.60;101731.00;;;;2087221;28;20698;-55
2021/10/09 04:52:58;;;;;;;6.73;6.23;;;;;19.50;101732.00;;;;2087595;28;20295;-55
2021/10/09 04:53:58;;;;;;;6.83;6.33;;;;;19.60;101734.00;;;;2086881;28;20709;-55
2021/10/09 04:54:58;;;;;;;6.87;6.37;;;;;19.60;101732.00;;;;2084756;28;20212;-54
2021/10/09 04:55:59;;;;;;;7.20;6.60;;;;;19.50;101738.00;;;;2087030;28;20684;-55
2021/10/09 04:57:00;;;;;;;6.60;6.10;;;;;19.50;101730.00;;;;2085771;28;20220;-55
2021/10/09 04:58:00;;;;;;;6.50;6.00;;;;;19.50;101726.00;;;;2086966;28;20866;-55
2021/10/09 04:59:00;;;;;;;6.47;5.97;;;;;19.50;101729.00;;;;2086913;28;20214;-55
2021/10/09 05:00:03;;;;;;;7.03;6.37;;;;;19.50;101729.00;;;;2082488;28;20217;-55
2021/10/09 05:01:04;;;;;;;5.75;5.35;;;;;19.50;101734.00;;;;2079030;28;20582;-55
2021/10/09 05:02:04;;;;;;;6.90;6.40;;;;;19.50;101729.00;;;;2079021;28;20228;-55
2021/10/09 05:03:06;;;;;;;7.00;6.40;;;;;19.50;101725.00;;;;2078877;28;20649;-55
2021/10/09 05:04:07;;;;;;;6.93;6.32;;;;;19.50;101724.00;;;;2079172;28;20221;-55
2021/10/09 05:05:08;;;;;;;7.10;6.50;;;;;19.50;101733.00;;;;2077897;28;20582;-55
2021/10/09 05:06:08;;;;;;;6.50;6.00;;;;;19.50;101723.00;;;;2078161;28;20264;-55
2021/10/09 05:07:09;;;;;;;7.20;6.67;;;;;19.50;101725.00;;;;2081024;28;20573;-55
2021/10/09 05:08:09;;;;;;;7.07;6.47;;;;;19.50;101725.00;;;;2081429;28;20338;-55
2021/10/09 05:09:10;;;;;;;6.90;6.40;;;;;19.50;101730.00;;;;2077835;28;20217;-54
2021/10/09 05:10:10;;;;;;;6.70;6.20;;;;;19.50;101727.00;;;;2083861;28;20221;-55
2021/10/09 05:11:10;;;;;;;6.33;5.83;;;;;19.50;101726.00;;;;2087128;28;20232;-55
2021/10/09 05:12:12;;;;;;;6.73;6.23;;;;;19.50;101728.00;;;;2086729;28;20311;-55
2021/10/09 05:13:12;;;;;;;6.75;6.25;;;;;19.50;101727.00;;;;2085961;28;20216;-57
2021/10/09 05:14:12;;;;;;;7.27;6.67;;;;;19.50;101726.00;;;;2086124;28;20739;-57
2021/10/09 05:15:13;;;;;;;6.60;6.10;;;;;19.50;101726.00;;;;2080261;28;20585;-56
2021/10/09 05:16:13;;;;;;;7.00;6.47;;;;;19.50;101725.00;;;;2077080;28;20214;-56